Time;durP1;ratioP1;P1;durP2;ratioP2;P2;SDS_P1;SDS_P2;PMS_P1;PMS_P2;Temp;Humidity;BMP_temperature;BMP_pressure;BME280_temperature;BME280_humidity;BME280_pressure;Samples;Min_cycle;Max_cycle;Signal;HPM_P1;HPM_P2
2023/04/19 00:01:57;;;;;;;6.07;2.60;;;;;;;;;;4948036;28;20499;-42
2023/04/19 00:04:22;;;;;;;3.53;3.17;;;;;;;;;;4949154;28;20105;-45
2023/04/19 00:06:50;;;;;;;2.53;2.33;;;;;;;;;;4946997;28;20039;-42
2023/04/19 00:09:15;;;;;;;5.32;2.83;;;;;;;;;;4948422;28;20524;-45
2023/04/19 00:11:40;;;;;;;6.30;2.67;;;;;;;;;;4948425;28;20087;-45
2023/04/19 00:14:06;;;;;;;2.58;2.40;;;;;;;;;;4948892;28;20023;-45
2023/04/19 00:16:31;;;;;;;5.40;2.65;;;;;;;;;;4953785;28;20035;-42
2023/04/19 00:18:57;;;;;;;2.75;2.50;;;;;;;;;;4963404;28;20045;-42
2023/04/19 00:21:22;;;;;;;6.30;3.03;;;;;;;;;;4961476;28;20407;-45
2023/04/19 00:23:47;;;;;;;3.00;2.80;;;;;;;;;;4967193;28;20061;-42
2023/04/19 00:26:14;;;;;;;3.92;2.67;;;;;;;;;;4962518;28;20027;-42
2023/04/19 00:28:40;;;;;;;6.53;2.80;;;;;;;;;;4959880;28;20089;-44
2023/04/19 00:31:05;;;;;;;3.50;2.88;;;;;;;;;;4965074;28;20696;-42
2023/04/19 00:33:32;;;;;;;3.90;2.80;;;;;;;;;;4963680;28;20078;-42
2023/04/19 00:35:57;;;;;;;4.10;2.83;;;;;;;;;;4965410;28;20117;-41
2023/04/19 00:38:23;;;;;;;3.20;2.85;;;;;;;;;;4966441;28;20543;-43
2023/04/19 00:40:48;;;;;;;5.53;2.58;;;;;;;;;;4961773;28;20501;-49
2023/04/19 00:43:20;;;;;;;2.97;2.78;;;;;;;;;;4966763;28;20031;-42
2023/04/19 00:45:46;;;;;;;5.70;2.72;;;;;;;;;;4969662;28;20435;-45
2023/04/19 00:48:13;;;;;;;5.97;3.08;;;;;;;;;;4965907;28;20038;-42
2023/04/19 00:50:39;;;;;;;4.43;3.22;;;;;;;;;;4965779;28;20042;-42
2023/04/19 00:53:06;;;;;;;3.42;3.13;;;;;;;;;;4970154;28;20039;-42
2023/04/19 00:55:31;;;;;;;4.03;3.13;;;;;;;;;;4970750;28;20185;-45
2023/04/19 00:57:58;;;;;;;6.65;3.40;;;;;;;;;;4968191;28;20110;-48
2023/04/19 01:00:24;;;;;;;3.58;3.28;;;;;;;;;;4966761;28;20104;-41
2023/04/19 01:02:49;;;;;;;4.85;3.30;;;;;;;;;;4966081;28;20035;-46
2023/04/19 01:05:15;;;;;;;5.50;3.60;;;;;;;;;;4969516;28;20104;-46
2023/04/19 01:07:41;;;;;;;5.97;3.17;;;;;;;;;;4963559;28;20030;-48
2023/04/19 01:10:07;;;;;;;3.67;3.28;;;;;;;;;;4968197;28;20027;-41
2023/04/19 01:12:32;;;;;;;3.28;2.92;;;;;;;;;;4966728;28;20774;-44
2023/04/19 01:14:58;;;;;;;4.13;2.97;;;;;;;;;;4966033;28;20037;-42
2023/04/19 01:17:24;;;;;;;3.65;3.35;;;;;;;;;;4970577;28;20424;-43
2023/04/19 01:19:58;;;;;;;4.40;3.15;;;;;;;;;;4969984;28;20035;-42
2023/04/19 01:22:23;;;;;;;4.55;3.25;;;;;;;;;;4968742;28;20503;-51
2023/04/19 01:24:48;;;;;;;3.75;3.20;;;;;;;;;;4966466;28;20042;-44
2023/04/19 01:27:16;;;;;;;4.72;3.10;;;;;;;;;;4968296;28;20074;-45
2023/04/19 01:29:41;;;;;;;4.80;2.95;;;;;;;;;;4970342;28;20047;-45
2023/04/19 01:32:07;;;;;;;3.55;2.95;;;;;;;;;;4966847;28;20042;-47
2023/04/19 01:34:32;;;;;;;4.25;3.00;;;;;;;;;;4968058;28;20030;-45
2023/04/19 01:36:57;;;;;;;4.53;2.97;;;;;;;;;;4967871;28;20039;-47
2023/04/19 01:39:25;;;;;;;3.10;2.70;;;;;;;;;;4966198;28;20692;-43
2023/04/19 01:41:50;;;;;;;4.75;2.65;;;;;;;;;;4974215;28;20046;-44
2023/04/19 01:44:15;;;;;;;3.30;3.00;;;;;;;;;;4965512;28;20019;-45
2023/04/19 01:46:41;;;;;;;4.60;2.72;;;;;;;;;;4964275;28;20047;-46
2023/04/19 01:49:07;;;;;;;2.80;2.60;;;;;;;;;;4970010;28;20038;-46
2023/04/19 01:51:33;;;;;;;4.18;2.42;;;;;;;;;;4968925;28;20419;-49
2023/04/19 01:53:58;;;;;;;2.42;2.30;;;;;;;;;;4964193;28;20114;-42
2023/04/19 01:56:24;;;;;;;3.60;2.10;;;;;;;;;;4965114;28;20109;-47
2023/04/19 01:58:50;;;;;;;2.38;2.17;;;;;;;;;;4965228;28;20043;-47
2023/04/19 02:01:15;;;;;;;2.83;2.13;;;;;;;;;;4968888;28;20042;-51
2023/04/19 02:03:41;;;;;;;1.88;1.60;;;;;;;;;;4966287;28;20033;-45
2023/04/19 02:06:13;;;;;;;1.73;1.63;;;;;;;;;;4969039;28;20118;-44
2023/04/19 02:08:40;;;;;;;4.30;2.20;;;;;;;;;;4965590;28;20027;-44
2023/04/19 02:11:11;;;;;;;1.85;1.75;;;;;;;;;;4964216;28;20043;-48
2023/04/19 02:13:36;;;;;;;2.30;2.08;;;;;;;;;;4963283;28;20086;-47
2023/04/19 02:16:02;;;;;;;2.28;2.08;;;;;;;;;;4968944;28;20039;-47
2023/04/19 02:18:30;;;;;;;1.80;1.70;;;;;;;;;;4970161;28;20476;-42
2023/04/19 02:20:57;;;;;;;2.10;1.88;;;;;;;;;;4964104;28;20047;-51
2023/04/19 02:23:23;;;;;;;3.42;2.20;;;;;;;;;;4964710;28;20113;-45
2023/04/19 02:25:48;;;;;;;1.73;1.63;;;;;;;;;;4967982;28;20138;-48
2023/04/19 02:28:13;;;;;;;1.70;1.55;;;;;;;;;;4964860;28;20054;-45
2023/04/19 02:30:39;;;;;;;2.05;1.52;;;;;;;;;;4967737;28;20039;-47
2023/04/19 02:33:04;;;;;;;1.90;1.70;;;;;;;;;;4963360;28;20030;-45
2023/04/19 02:35:30;;;;;;;2.10;2.00;;;;;;;;;;4965252;28;20047;-47
2023/04/19 02:37:55;;;;;;;1.58;1.48;;;;;;;;;;4963680;28;20038;-44
2023/04/19 02:40:21;;;;;;;2.00;1.90;;;;;;;;;;4963572;28;20062;-45
2023/04/19 02:42:47;;;;;;;1.60;1.50;;;;;;;;;;4960996;28;20082;-46
2023/04/19 02:45:12;;;;;;;1.90;1.80;;;;;;;;;;4963903;28;20030;-49
2023/04/19 02:47:38;;;;;;;2.88;1.70;;;;;;;;;;4966875;28;20035;-48
2023/04/19 02:50:04;;;;;;;1.67;1.50;;;;;;;;;;4968000;28;20085;-46
2023/04/19 02:52:30;;;;;;;1.90;1.75;;;;;;;;;;4962483;28;20083;-46
2023/04/19 02:54:55;;;;;;;1.73;1.35;;;;;;;;;;4967754;28;20454;-43
2023/04/19 02:57:20;;;;;;;1.60;1.50;;;;;;;;;;4951142;28;20042;-51
2023/04/19 02:59:46;;;;;;;1.80;1.70;;;;;;;;;;4949905;28;20035;-46
2023/04/19 03:02:11;;;;;;;1.55;1.45;;;;;;;;;;4950471;28;20073;-48
2023/04/19 03:04:37;;;;;;;1.58;1.48;;;;;;;;;;4946400;28;20023;-48
2023/04/19 03:07:02;;;;;;;1.40;1.40;;;;;;;;;;4962801;28;20078;-48
2023/04/19 03:09:28;;;;;;;1.58;1.48;;;;;;;;;;4964921;28;20030;-48
2023/04/19 03:11:53;;;;;;;1.80;1.70;;;;;;;;;;4963034;28;20500;-44
2023/04/19 03:14:19;;;;;;;1.65;1.55;;;;;;;;;;4965479;28;20027;-43
2023/04/19 03:16:45;;;;;;;2.33;1.50;;;;;;;;;;4967058;28;20101;-43
2023/04/19 03:19:10;;;;;;;1.50;1.40;;;;;;;;;;4963390;28;20125;-43
2023/04/19 03:21:35;;;;;;;1.63;1.52;;;;;;;;;;4962701;28;20129;-43
2023/04/19 03:24:01;;;;;;;3.72;1.80;;;;;;;;;;4960377;28;20026;-41
2023/04/19 03:26:26;;;;;;;2.10;1.13;;;;;;;;;;4966173;28;20043;-44
2023/04/19 03:28:51;;;;;;;1.98;1.42;;;;;;;;;;4965396;28;20034;-42
2023/04/19 03:31:17;;;;;;;2.17;1.60;;;;;;;;;;4962313;28;20534;-42
2023/04/19 03:33:42;;;;;;;1.70;1.60;;;;;;;;;;4966391;28;20081;-43
2023/04/19 03:36:08;;;;;;;1.73;1.38;;;;;;;;;;4962702;28;20053;-42
2023/04/19 03:38:33;;;;;;;1.38;1.30;;;;;;;;;;4961924;28;20043;-42
2023/04/19 03:40:59;;;;;;;1.50;1.40;;;;;;;;;;4965687;28;20035;-42
2023/04/19 03:43:24;;;;;;;1.50;1.40;;;;;;;;;;4965774;28;20046;-42
2023/04/19 03:45:50;;;;;;;1.70;1.60;;;;;;;;;;4963383;28;20099;-42
2023/04/19 03:48:15;;;;;;;4.03;1.60;;;;;;;;;;4963854;28;20034;-42
2023/04/19 03:50:41;;;;;;;2.22;1.35;;;;;;;;;;4965381;28;20034;-42
2023/04/19 03:53:06;;;;;;;2.25;1.48;;;;;;;;;;4963314;28;20484;-42
2023/04/19 03:55:31;;;;;;;2.45;1.33;;;;;;;;;;4965146;28;20043;-46
2023/04/19 03:57:57;;;;;;;2.03;1.50;;;;;;;;;;4963540;28;20033;-42
2023/04/19 04:00:22;;;;;;;2.20;1.40;;;;;;;;;;4966190;28;20043;-43
2023/04/19 04:02:48;;;;;;;1.60;1.50;;;;;;;;;;4964857;28;20373;-43
2023/04/19 04:05:13;;;;;;;1.50;1.40;;;;;;;;;;4963208;28;20094;-43
2023/04/19 04:07:39;;;;;;;2.65;1.38;;;;;;;;;;4966243;28;20023;-43
2023/04/19 04:10:05;;;;;;;1.65;1.50;;;;;;;;;;4962073;28;20506;-42
2023/04/19 04:12:30;;;;;;;1.55;1.42;;;;;;;;;;4962771;28;20042;-42
2023/04/19 04:14:56;;;;;;;1.30;1.20;;;;;;;;;;4964084;28;20084;-41
2023/04/19 04:17:23;;;;;;;1.50;1.40;;;;;;;;;;4966953;28;20066;-42
2023/04/19 04:19:49;;;;;;;1.00;1.00;;;;;;;;;;4971434;28;20708;-42
2023/04/19 04:22:15;;;;;;;1.48;1.38;;;;;;;;;;4966853;28;20093;-45
2023/04/19 04:24:41;;;;;;;1.50;1.40;;;;;;;;;;4968115;28;20035;-41
2023/04/19 04:27:10;;;;;;;1.45;1.35;;;;;;;;;;4968485;28;20444;-41
2023/04/19 04:29:36;;;;;;;1.77;1.33;;;;;;;;;;4964685;28;20027;-42
2023/04/19 04:32:09;;;;;;;1.45;1.38;;;;;;;;;;4965692;28;20042;-41
2023/04/19 04:34:36;;;;;;;2.53;1.25;;;;;;;;;;4963861;28;20118;-42
2023/04/19 04:37:01;;;;;;;2.80;1.35;;;;;;;;;;4971783;28;20584;-42
2023/04/19 04:39:27;;;;;;;1.98;1.40;;;;;;;;;;4966393;28;20113;-41
2023/04/19 04:41:53;;;;;;;1.30;1.20;;;;;;;;;;4963028;28;20377;-43
2023/04/19 04:44:19;;;;;;;2.67;1.30;;;;;;;;;;4970792;28;20039;-42
2023/04/19 04:46:45;;;;;;;1.42;1.33;;;;;;;;;;4965674;28;20070;-43
2023/04/19 04:49:11;;;;;;;2.45;1.30;;;;;;;;;;4969930;28;20039;-42
2023/04/19 04:51:36;;;;;;;1.20;1.20;;;;;;;;;;4966402;28;20043;-42
2023/04/19 04:54:04;;;;;;;2.05;1.50;;;;;;;;;;4972777;28;20023;-42
2023/04/19 04:56:29;;;;;;;1.70;1.40;;;;;;;;;;4964478;28;20088;-42
2023/04/19 04:58:55;;;;;;;1.52;1.42;;;;;;;;;;4970101;28;20031;-42
2023/04/19 05:01:22;;;;;;;1.58;1.48;;;;;;;;;;4968616;28;20484;-42
2023/04/19 05:03:48;;;;;;;1.50;1.40;;;;;;;;;;4968301;28;20070;-43
2023/04/19 05:06:13;;;;;;;1.50;1.40;;;;;;;;;;4968012;28;20530;-43
2023/04/19 05:08:39;;;;;;;1.35;1.30;;;;;;;;;;4970259;28;20039;-41
2023/04/19 05:11:04;;;;;;;3.88;1.40;;;;;;;;;;4970461;28;20400;-42
2023/04/19 05:13:30;;;;;;;1.77;1.63;;;;;;;;;;4964046;28;20023;-44
2023/04/19 05:15:55;;;;;;;1.58;1.48;;;;;;;;;;4966326;28;20048;-42
2023/04/19 05:18:20;;;;;;;2.75;1.30;;;;;;;;;;4966163;28;20050;-42
2023/04/19 05:20:46;;;;;;;1.20;1.20;;;;;;;;;;4969706;28;20500;-42
2023/04/19 05:23:11;;;;;;;2.03;1.50;;;;;;;;;;4970187;28;20027;-46
2023/04/19 05:25:36;;;;;;;1.55;1.45;;;;;;;;;;4964304;28;20510;-41
2023/04/19 05:28:02;;;;;;;6.18;1.33;;;;;;;;;;4966296;28;20043;-42
2023/04/19 05:30:28;;;;;;;1.63;1.48;;;;;;;;;;4961688;28;20031;-42
2023/04/19 05:32:54;;;;;;;1.40;1.30;;;;;;;;;;4969278;28;20439;-44
2023/04/19 05:35:20;;;;;;;5.25;1.70;;;;;;;;;;4965766;28;20037;-44
2023/04/19 05:37:45;;;;;;;2.38;1.40;;;;;;;;;;4966220;28;20029;-42
2023/04/19 05:40:12;;;;;;;2.17;1.30;;;;;;;;;;4968151;28;20576;-42
2023/04/19 05:42:38;;;;;;;2.40;1.60;;;;;;;;;;4971085;28;20033;-43
2023/04/19 05:45:04;;;;;;;1.60;1.50;;;;;;;;;;4970072;28;20131;-45
2023/04/19 05:47:30;;;;;;;3.53;1.35;;;;;;;;;;4964781;28;20083;-46
2023/04/19 05:49:55;;;;;;;2.08;1.50;;;;;;;;;;4967906;28;20554;-42
2023/04/19 05:52:20;;;;;;;1.73;1.50;;;;;;;;;;4968630;28;20050;-42
2023/04/19 05:54:46;;;;;;;2.15;1.30;;;;;;;;;;4969126;28;20041;-43
2023/04/19 05:57:11;;;;;;;1.40;1.30;;;;;;;;;;4966245;28;20058;-42
2023/04/19 05:59:37;;;;;;;3.63;1.27;;;;;;;;;;4967181;28;20031;-51
2023/04/19 06:02:03;;;;;;;2.22;1.30;;;;;;;;;;4967208;28;20047;-43
2023/04/19 06:04:28;;;;;;;2.45;1.35;;;;;;;;;;4967133;28;20027;-52
2023/04/19 06:06:53;;;;;;;1.70;1.52;;;;;;;;;;4967280;28;20054;-48
2023/04/19 06:09:19;;;;;;;2.63;1.20;;;;;;;;;;4967948;28;20491;-51
2023/04/19 06:11:44;;;;;;;1.35;1.30;;;;;;;;;;4965720;28;20113;-43
2023/04/19 06:14:12;;;;;;;2.70;2.15;;;;;;;;;;4968577;28;20030;-42
2023/04/19 06:16:38;;;;;;;6.15;1.40;;;;;;;;;;4967777;28;20057;-47
2023/04/19 06:19:03;;;;;;;1.83;1.30;;;;;;;;;;4966539;28;20031;-49
2023/04/19 06:21:31;;;;;;;1.20;1.20;;;;;;;;;;4966420;28;20180;-49
2023/04/19 06:23:57;;;;;;;1.50;1.40;;;;;;;;;;4966160;28;20027;-45
2023/04/19 06:26:22;;;;;;;1.40;1.30;;;;;;;;;;4964876;28;20038;-48
2023/04/19 06:28:48;;;;;;;2.97;1.30;;;;;;;;;;4967954;28;20546;-48
2023/04/19 06:31:13;;;;;;;1.77;1.20;;;;;;;;;;4965295;28;20049;-47
2023/04/19 06:33:38;;;;;;;7.18;1.80;;;;;;;;;;4967852;28;20031;-45
2023/04/19 06:36:04;;;;;;;4.93;1.50;;;;;;;;;;4962574;28;20051;-43
2023/04/19 06:38:30;;;;;;;13.27;2.95;;;;;;;;;;4964932;28;20026;-46
2023/04/19 06:40:55;;;;;;;11.32;2.30;;;;;;;;;;4966001;28;20031;-48
2023/04/19 06:43:21;;;;;;;3.13;1.60;;;;;;;;;;4967968;28;20027;-43
2023/04/19 06:45:46;;;;;;;3.22;1.65;;;;;;;;;;4964731;28;20039;-43
2023/04/19 06:48:12;;;;;;;3.88;1.67;;;;;;;;;;4963080;28;20404;-47
2023/04/19 06:50:37;;;;;;;11.32;1.92;;;;;;;;;;4967117;28;20043;-47
2023/04/19 06:53:03;;;;;;;7.15;2.30;;;;;;;;;;4963368;28;20042;-48
2023/04/19 06:55:28;;;;;;;6.03;2.75;;;;;;;;;;4963873;28;20039;-44
2023/04/19 06:57:54;;;;;;;5.22;2.40;;;;;;;;;;4964226;28;20365;-46
2023/04/19 07:00:19;;;;;;;6.03;2.45;;;;;;;;;;4963630;28;20027;-44
2023/04/19 07:02:45;;;;;;;7.57;2.25;;;;;;;;;;4961072;28;20548;-42
2023/04/19 07:05:12;;;;;;;2.47;1.77;;;;;;;;;;4963202;28;20040;-48
2023/04/19 07:07:37;;;;;;;5.63;1.58;;;;;;;;;;4966388;28;20038;-42
2023/04/19 07:10:03;;;;;;;1.85;1.42;;;;;;;;;;4964769;28;20034;-42
2023/04/19 07:12:28;;;;;;;1.77;1.67;;;;;;;;;;4964548;28;20161;-42
2023/04/19 07:14:56;;;;;;;6.75;1.63;;;;;;;;;;4962186;28;20065;-42
2023/04/19 07:17:22;;;;;;;5.50;1.77;;;;;;;;;;4963328;28;20492;-42
2023/04/19 07:19:48;;;;;;;1.50;1.27;;;;;;;;;;4967599;28;20033;-42
2023/04/19 07:22:13;;;;;;;1.83;1.30;;;;;;;;;;4963738;28;20039;-44
2023/04/19 07:24:40;;;;;;;2.90;1.40;;;;;;;;;;4965414;28;20054;-45
2023/04/19 07:27:09;;;;;;;2.83;1.48;;;;;;;;;;4965999;28;20043;-47
2023/04/19 07:29:35;;;;;;;1.50;1.40;;;;;;;;;;4962397;28;20108;-43
2023/04/19 07:32:00;;;;;;;3.25;1.50;;;;;;;;;;4962462;28;20039;-44
2023/04/19 07:34:26;;;;;;;3.38;1.50;;;;;;;;;;4966921;28;20033;-43
2023/04/19 07:36:51;;;;;;;2.17;1.52;;;;;;;;;;4966233;28;20444;-44
2023/04/19 07:39:17;;;;;;;10.57;1.50;;;;;;;;;;4967154;28;20113;-47
2023/04/19 07:41:43;;;;;;;5.10;1.50;;;;;;;;;;4964438;28;20039;-41
2023/04/19 07:44:10;;;;;;;4.35;1.58;;;;;;;;;;4965340;28;20030;-46
2023/04/19 07:46:35;;;;;;;3.22;1.40;;;;;;;;;;4963289;28;20042;-51
2023/04/19 07:49:01;;;;;;;7.28;1.40;;;;;;;;;;4967325;28;20083;-47
2023/04/19 07:51:26;;;;;;;2.33;1.30;;;;;;;;;;4965103;28;20066;-45
2023/04/19 07:53:52;;;;;;;5.75;1.60;;;;;;;;;;4963500;28;20392;-42
2023/04/19 07:56:19;;;;;;;1.65;1.30;;;;;;;;;;4966656;28;20039;-44
2023/04/19 07:58:44;;;;;;;2.17;1.58;;;;;;;;;;4963339;28;20431;-44
2023/04/19 08:01:10;;;;;;;1.88;1.25;;;;;;;;;;4965558;28;20046;-46
2023/04/19 08:03:36;;;;;;;4.88;1.38;;;;;;;;;;4962822;28;20023;-49
2023/04/19 08:06:04;;;;;;;4.18;1.45;;;;;;;;;;4963565;28;20085;-42
2023/04/19 08:08:30;;;;;;;1.20;1.20;;;;;;;;;;4967742;28;20540;-45
2023/04/19 08:10:55;;;;;;;1.40;1.20;;;;;;;;;;4964304;28;20121;-46
2023/04/19 08:13:21;;;;;;;2.40;1.30;;;;;;;;;;4965970;28;20130;-41
2023/04/19 08:15:47;;;;;;;1.48;1.20;;;;;;;;;;4966496;28;20512;-44
2023/04/19 08:18:12;;;;;;;1.50;1.40;;;;;;;;;;4967812;28;20031;-46
2023/04/19 08:20:38;;;;;;;1.85;1.55;;;;;;;;;;4965451;28;20081;-45
2023/04/19 08:23:05;;;;;;;1.42;1.33;;;;;;;;;;4964300;28;20057;-51
2023/04/19 08:25:30;;;;;;;1.42;1.33;;;;;;;;;;4961799;28;20377;-44
2023/04/19 08:27:57;;;;;;;2.55;1.38;;;;;;;;;;4945038;29;20039;-43
2023/04/19 08:30:23;;;;;;;2.40;1.30;;;;;;;;;;4948836;28;20193;-47
2023/04/19 08:32:49;;;;;;;3.92;2.30;;;;;;;;;;4964879;28;20027;-45
2023/04/19 08:35:15;;;;;;;3.08;1.65;;;;;;;;;;4964831;28;20030;-45
2023/04/19 08:37:40;;;;;;;1.73;1.38;;;;;;;;;;4966742;28;20023;-43
2023/04/19 08:40:06;;;;;;;5.57;1.70;;;;;;;;;;4965834;28;20084;-40
2023/04/19 08:42:32;;;;;;;1.48;1.38;;;;;;;;;;4963211;28;20020;-43
2023/04/19 08:45:01;;;;;;;2.40;1.70;;;;;;;;;;4964178;28;20023;-49
2023/04/19 08:47:27;;;;;;;8.43;1.80;;;;;;;;;;4966221;28;20078;-48
2023/04/19 08:49:55;;;;;;;10.95;3.65;;;;;;;;;;4963471;28;20042;-43
2023/04/19 08:52:23;;;;;;;6.00;2.10;;;;;;;;;;4961963;28;20027;-45
2023/04/19 08:54:50;;;;;;;7.32;3.45;;;;;;;;;;4962690;28;20697;-46
2023/04/19 08:57:15;;;;;;;3.85;1.80;;;;;;;;;;4966846;28;20043;-46
2023/04/19 08:59:44;;;;;;;4.68;2.50;;;;;;;;;;4966436;28;20041;-46
2023/04/19 09:02:09;;;;;;;3.05;2.38;;;;;;;;;;4964764;28;20182;-47
2023/04/19 09:04:35;;;;;;;5.03;2.40;;;;;;;;;;4964937;28;20113;-47
2023/04/19 09:07:00;;;;;;;1.90;1.80;;;;;;;;;;4969397;28;20120;-48
2023/04/19 09:09:28;;;;;;;2.15;1.95;;;;;;;;;;4967857;28;20039;-48
2023/04/19 09:11:53;;;;;;;9.15;1.90;;;;;;;;;;4970520;28;20431;-47
2023/04/19 09:14:20;;;;;;;2.30;1.67;;;;;;;;;;4967005;28;20070;-46
2023/04/19 09:16:47;;;;;;;2.90;1.80;;;;;;;;;;4969699;28;20487;-45
2023/04/19 09:19:12;;;;;;;9.40;1.90;;;;;;;;;;4967347;28;21756;-47
2023/04/19 09:21:38;;;;;;;2.78;1.92;;;;;;;;;;4966259;28;20062;-45
2023/04/19 09:24:05;;;;;;;5.60;1.95;;;;;;;;;;4967086;28;20310;-46
2023/04/19 09:26:31;;;;;;;2.22;1.90;;;;;;;;;;4965871;28;20492;-42
2023/04/19 09:28:56;;;;;;;2.17;1.80;;;;;;;;;;4969884;28;20031;-48
2023/04/19 09:31:23;;;;;;;3.58;1.67;;;;;;;;;;4966558;28;20070;-49
2023/04/19 09:33:48;;;;;;;2.30;1.70;;;;;;;;;;4967836;28;20038;-43
2023/04/19 09:36:34;;;;;;;3.22;1.75;;;;;;;;;;4966030;28;20042;-43
2023/04/19 09:39:00;;;;;;;2.80;2.28;;;;;;;;;;4967602;28;20047;-43
2023/04/19 09:41:25;;;;;;;2.55;1.70;;;;;;;;;;4972042;28;20399;-42
2023/04/19 09:43:51;;;;;;;2.17;1.60;;;;;;;;;;4965276;28;20042;-47
2023/04/19 09:46:29;;;;;;;2.03;1.80;;;;;;;;;;4966992;28;20057;-49
2023/04/19 09:48:55;;;;;;;3.70;3.05;;;;;;;;;;4969644;28;20042;-48
2023/04/19 09:51:21;;;;;;;11.10;3.75;;;;;;;;;;4968860;28;20503;-48
2023/04/19 09:53:48;;;;;;;8.80;3.08;;;;;;;;;;4969153;28;20035;-47
2023/04/19 09:56:13;;;;;;;7.25;2.72;;;;;;;;;;4962380;28;20031;-46
2023/04/19 09:58:38;;;;;;;8.13;2.88;;;;;;;;;;4966080;28;20042;-49
2023/04/19 10:01:05;;;;;;;2.95;1.88;;;;;;;;;;4965856;28;20047;-48
2023/04/19 10:03:30;;;;;;;4.10;1.50;;;;;;;;;;4964462;28;20384;-46
2023/04/19 10:05:56;;;;;;;2.25;1.88;;;;;;;;;;4967333;28;20043;-46
2023/04/19 10:08:23;;;;;;;4.00;1.90;;;;;;;;;;4968867;28;20045;-43
2023/04/19 10:10:53;;;;;;;4.20;1.90;;;;;;;;;;4967765;28;20042;-48
2023/04/19 10:13:22;;;;;;;2.25;1.77;;;;;;;;;;4965219;28;20428;-46
2023/04/19 10:15:48;;;;;;;5.78;1.90;;;;;;;;;;4963156;28;20043;-48
2023/04/19 10:18:13;;;;;;;2.47;1.73;;;;;;;;;;4967765;28;20033;-46
2023/04/19 10:21:00;;;;;;;1.90;1.80;;;;;;;;;;4969175;28;20164;-44
2023/04/19 10:23:27;;;;;;;8.75;2.30;;;;;;;;;;4968266;28;20027;-49
2023/04/19 10:25:58;;;;;;;2.67;2.15;;;;;;;;;;4965016;28;20514;-46
2023/04/19 10:28:24;;;;;;;2.78;1.80;;;;;;;;;;4963043;28;20039;-50
2023/04/19 10:31:00;;;;;;;2.22;2.00;;;;;;;;;;4964213;28;20146;-49
2023/04/19 10:33:33;;;;;;;1.77;1.67;;;;;;;;;;4962402;28;20027;-47
2023/04/19 10:36:00;;;;;;;1.65;1.50;;;;;;;;;;4967517;28;20035;-47
2023/04/19 10:38:41;;;;;;;2.90;1.80;;;;;;;;;;4961640;28;20391;-47
2023/04/19 10:41:15;;;;;;;2.15;1.73;;;;;;;;;;4962812;28;20143;-43
2023/04/19 10:43:56;;;;;;;4.10;1.67;;;;;;;;;;4965522;28;20500;-43
2023/04/19 10:46:24;;;;;;;3.67;1.70;;;;;;;;;;4961024;28;20522;-46
2023/04/19 10:48:52;;;;;;;4.50;1.90;;;;;;;;;;4965304;28;20022;-46
2023/04/19 10:51:28;;;;;;;2.13;1.83;;;;;;;;;;4965693;28;20090;-49
2023/04/19 10:53:59;;;;;;;2.78;2.03;;;;;;;;;;4964570;28;20054;-46
2023/04/19 10:56:33;;;;;;;6.85;2.10;;;;;;;;;;4966415;28;20538;-49
2023/04/19 11:01:36;;;;;;;7.18;1.98;;;;;;;;;;4955434;28;20133;-46
2023/04/19 11:04:01;;;;;;;3.55;1.90;;;;;;;;;;4942340;29;20062;-45
2023/04/19 11:06:26;;;;;;;2.90;1.58;;;;;;;;;;4951748;28;20492;-46
2023/04/19 11:08:53;;;;;;;5.95;2.00;;;;;;;;;;4965191;28;20101;-46
2023/04/19 11:11:22;;;;;;;5.90;2.28;;;;;;;;;;4961217;28;20484;-47
2023/04/19 11:13:48;;;;;;;3.30;1.90;;;;;;;;;;4965565;28;20019;-51
2023/04/19 11:16:13;;;;;;;3.90;1.80;;;;;;;;;;4965550;28;20045;-48
2023/04/19 11:18:39;;;;;;;7.18;2.03;;;;;;;;;;4960091;28;20077;-44
2023/04/19 11:21:04;;;;;;;3.42;1.75;;;;;;;;;;4965942;28;20046;-45
2023/04/19 11:23:30;;;;;;;1.90;1.80;;;;;;;;;;4966920;28;20109;-42
2023/04/19 11:25:55;;;;;;;5.00;1.77;;;;;;;;;;4960462;28;20035;-43
2023/04/19 11:28:21;;;;;;;7.75;1.90;;;;;;;;;;4960682;28;20042;-42
2023/04/19 11:30:47;;;;;;;2.70;1.65;;;;;;;;;;4970457;28;20105;-43
2023/04/19 11:33:12;;;;;;;6.50;1.70;;;;;;;;;;4962640;28;20035;-43
2023/04/19 11:35:38;;;;;;;4.03;1.90;;;;;;;;;;4965907;28;20053;-42
2023/04/19 11:38:04;;;;;;;2.08;1.90;;;;;;;;;;4967619;28;20070;-48
2023/04/19 11:40:30;;;;;;;10.32;2.03;;;;;;;;;;4967845;28;20035;-45
2023/04/19 11:43:02;;;;;;;4.53;1.80;;;;;;;;;;4966118;28;20039;-43
2023/04/19 11:45:31;;;;;;;5.57;2.17;;;;;;;;;;4966500;28;20121;-47
2023/04/19 11:47:57;;;;;;;2.47;1.70;;;;;;;;;;4963497;28;20045;-43
2023/04/19 11:50:31;;;;;;;4.53;1.77;;;;;;;;;;4966690;28;20094;-45
2023/04/19 11:52:57;;;;;;;3.13;1.77;;;;;;;;;;4964027;28;20026;-42
2023/04/19 11:55:23;;;;;;;4.65;1.80;;;;;;;;;;4965469;28;20034;-42
2023/04/19 11:57:49;;;;;;;2.20;1.52;;;;;;;;;;4961441;28;20391;-45
2023/04/19 12:00:15;;;;;;;2.00;1.80;;;;;;;;;;4963885;28;20034;-46
2023/04/19 12:02:44;;;;;;;3.20;1.90;;;;;;;;;;4960963;28;20030;-43
2023/04/19 12:05:12;;;;;;;2.03;1.83;;;;;;;;;;4963233;28;20117;-42
2023/04/19 12:08:03;;;;;;;1.98;1.80;;;;;;;;;;4963186;28;20504;-48
2023/04/19 12:10:30;;;;;;;2.38;1.60;;;;;;;;;;4966769;28;20046;-43
2023/04/19 12:12:56;;;;;;;2.00;1.80;;;;;;;;;;4966740;28;20037;-42
2023/04/19 12:15:21;;;;;;;2.67;1.92;;;;;;;;;;4964038;28;20031;-42
2023/04/19 12:17:57;;;;;;;1.98;1.73;;;;;;;;;;4965893;28;20360;-42
2023/04/19 12:20:33;;;;;;;6.60;2.08;;;;;;;;;;4961338;28;20039;-44
2023/04/19 12:22:59;;;;;;;6.97;1.80;;;;;;;;;;4959918;28;20472;-46
2023/04/19 12:25:32;;;;;;;5.93;1.90;;;;;;;;;;4960416;28;20046;-45
2023/04/19 12:27:59;;;;;;;3.70;1.70;;;;;;;;;;4967600;28;20034;-44
2023/04/19 12:30:25;;;;;;;3.28;1.80;;;;;;;;;;4961691;28;20096;-46
2023/04/19 12:32:54;;;;;;;3.80;2.05;;;;;;;;;;4964667;28;20038;-43
2023/04/19 12:35:26;;;;;;;4.40;1.85;;;;;;;;;;4964862;28;20693;-45
2023/04/19 12:37:57;;;;;;;4.50;2.13;;;;;;;;;;4963700;28;20067;-42
2023/04/19 12:40:24;;;;;;;5.28;2.15;;;;;;;;;;4969021;28;20074;-42
2023/04/19 12:42:49;;;;;;;4.20;2.33;;;;;;;;;;4969393;28;20042;-45
2023/04/19 12:45:15;;;;;;;4.38;2.50;;;;;;;;;;4967835;28;20039;-43
2023/04/19 12:47:41;;;;;;;8.15;2.00;;;;;;;;;;4971546;28;20403;-42
2023/04/19 12:50:08;;;;;;;5.10;2.00;;;;;;;;;;4970670;28;20035;-45
2023/04/19 12:52:34;;;;;;;3.92;1.90;;;;;;;;;;4967572;28;20030;-43
2023/04/19 12:55:00;;;;;;;3.97;1.98;;;;;;;;;;4968502;28;20066;-42
2023/04/19 12:57:25;;;;;;;4.05;2.35;;;;;;;;;;4965161;28;20034;-42
2023/04/19 12:59:50;;;;;;;2.10;1.83;;;;;;;;;;4968651;28;20489;-44
2023/04/19 13:02:16;;;;;;;7.43;2.00;;;;;;;;;;4965851;28;20046;-41
2023/04/19 13:04:41;;;;;;;2.83;1.90;;;;;;;;;;4966771;28;20035;-42
2023/04/19 13:07:07;;;;;;;2.17;1.95;;;;;;;;;;4967182;28;20042;-44
2023/04/19 13:09:32;;;;;;;4.28;2.30;;;;;;;;;;4968104;28;20026;-45
2023/04/19 13:11:58;;;;;;;5.60;1.80;;;;;;;;;;4969968;28;20043;-42
2023/04/19 13:14:25;;;;;;;2.33;1.90;;;;;;;;;;4967698;28;20049;-43
2023/04/19 13:16:50;;;;;;;3.13;1.80;;;;;;;;;;4964893;28;20064;-43
2023/04/19 13:19:16;;;;;;;3.75;2.03;;;;;;;;;;4968375;28;20145;-41
2023/04/19 13:21:41;;;;;;;1.83;1.73;;;;;;;;;;4967170;28;20054;-42
2023/04/19 13:24:07;;;;;;;4.18;2.08;;;;;;;;;;4966514;28;20058;-43
2023/04/19 13:26:33;;;;;;;3.53;2.13;;;;;;;;;;4966889;28;20035;-42
2023/04/19 13:28:58;;;;;;;5.97;2.15;;;;;;;;;;4967370;28;20551;-42
2023/04/19 13:31:25;;;;;;;2.10;1.90;;;;;;;;;;4966018;28;20385;-43
2023/04/19 13:33:50;;;;;;;3.85;2.05;;;;;;;;;;4967543;28;20037;-41
2023/04/19 13:36:16;;;;;;;2.08;1.83;;;;;;;;;;4962842;28;20475;-43
2023/04/19 13:38:42;;;;;;;1.80;1.70;;;;;;;;;;4966418;28;20058;-40
2023/04/19 13:41:08;;;;;;;1.80;1.70;;;;;;;;;;4967320;28;20097;-41
2023/04/19 13:43:34;;;;;;;1.85;1.60;;;;;;;;;;4964768;28;20054;-43
2023/04/19 13:45:59;;;;;;;4.05;1.80;;;;;;;;;;4966043;28;20062;-43
2023/04/19 13:48:27;;;;;;;3.88;1.63;;;;;;;;;;4967108;28;20027;-46
2023/04/19 13:50:56;;;;;;;2.35;1.83;;;;;;;;;;4966989;28;20070;-41
2023/04/19 13:53:22;;;;;;;2.30;1.60;;;;;;;;;;4967564;28;20039;-42
2023/04/19 13:55:47;;;;;;;3.28;1.60;;;;;;;;;;4964199;28;20240;-41
2023/04/19 13:58:13;;;;;;;1.77;1.45;;;;;;;;;;4969587;28;20039;-43
2023/04/19 14:00:38;;;;;;;1.73;1.60;;;;;;;;;;4963908;28;20031;-41
2023/04/19 14:03:04;;;;;;;3.53;1.77;;;;;;;;;;4968549;28;20027;-45
2023/04/19 14:05:29;;;;;;;1.85;1.70;;;;;;;;;;4966422;28;20055;-41
2023/04/19 14:07:55;;;;;;;1.70;1.40;;;;;;;;;;4965108;28;20034;-44
2023/04/19 14:10:20;;;;;;;2.65;1.60;;;;;;;;;;4964692;28;20103;-45
2023/04/19 14:12:46;;;;;;;6.13;1.70;;;;;;;;;;4967405;28;20069;-41
2023/04/19 14:15:12;;;;;;;1.67;1.58;;;;;;;;;;4966088;28;20027;-43
2023/04/19 14:17:37;;;;;;;1.70;1.60;;;;;;;;;;4959999;28;20546;-41
2023/04/19 14:20:04;;;;;;;1.70;1.60;;;;;;;;;;4965596;28;20077;-43
2023/04/19 14:22:30;;;;;;;2.25;1.50;;;;;;;;;;4966651;28;20031;-45
2023/04/19 14:24:56;;;;;;;2.25;1.30;;;;;;;;;;4964224;28;20055;-43
2023/04/19 14:27:21;;;;;;;3.05;1.67;;;;;;;;;;4967864;28;20085;-42
2023/04/19 14:29:47;;;;;;;4.85;1.80;;;;;;;;;;4967870;28;20031;-42
2023/04/19 14:32:13;;;;;;;2.13;1.60;;;;;;;;;;4978416;28;20026;-42
2023/04/19 14:34:39;;;;;;;2.63;1.50;;;;;;;;;;4965989;28;20046;-49
2023/04/19 14:37:04;;;;;;;6.53;1.50;;;;;;;;;;4966066;28;20051;-41
2023/04/19 14:39:30;;;;;;;1.70;1.60;;;;;;;;;;4963699;28;20039;-42
2023/04/19 14:41:56;;;;;;;1.52;1.42;;;;;;;;;;4966505;28;20074;-43